Time;durP1;ratioP1;P1;durP2;ratioP2;P2;SDS_P1;SDS_P2;PMS_P1;PMS_P2;Temp;Humidity;BMP_temperature;BMP_pressure;BME280_temperature;BME280_humidity;BME280_pressure;Samples;Min_cycle;Max_cycle;Signal;HPM_P1;HPM_P2
2022/07/17 00:00:24;;;;;;;;;;;;;;;25.87;43.92;99749.91;3154801;28;20417;-65
2022/07/17 00:01:57;;;;;;;;;;;;;;;25.84;44.58;99758.25;3154948;28;19935;-66
2022/07/17 00:03:28;;;;;;;;;;;;;;;25.82;44.86;99765.56;3154199;28;19928;-67
2022/07/17 00:05:00;;;;;;;;;;;;;;;25.77;44.71;99767.91;3154519;28;19928;-67
2022/07/17 00:06:32;;;;;;;;;;;;;;;25.77;44.65;99767.91;3154704;28;19982;-66
2022/07/17 00:08:04;;;;;;;;;;;;;;;25.74;44.56;99754.91;3154747;28;19932;-66
2022/07/17 00:09:35;;;;;;;;;;;;;;;25.77;44.22;99770.56;3154886;28;19975;-66
2022/07/17 00:11:07;;;;;;;;;;;;;;;25.77;44.06;99760.72;3154764;28;19928;-66
2022/07/17 00:12:38;;;;;;;;;;;;;;;25.78;44.22;99770.38;3154712;28;19927;-66
2022/07/17 00:14:10;;;;;;;;;;;;;;;25.77;44.28;99768.72;3155020;28;19928;-66
2022/07/17 00:15:40;;;;;;;;;;;;;;;25.77;44.16;99774.06;3154911;28;19928;-65
2022/07/17 00:17:14;;;;;;;;;;;;;;;25.75;44.16;99775.22;3154507;28;19928;-65
2022/07/17 00:18:45;;;;;;;;;;;;;;;25.73;44.02;99772.72;3154592;28;19954;-65
2022/07/17 00:20:17;;;;;;;;;;;;;;;25.74;43.81;99774.41;3154491;28;19928;-65
2022/07/17 00:21:49;;;;;;;;;;;;;;;25.74;43.88;99776.25;3158979;28;19931;-65
2022/07/17 00:23:21;;;;;;;;;;;;;;;25.71;43.96;99766.75;3154610;28;20408;-65
2022/07/17 00:24:52;;;;;;;;;;;;;;;25.68;44.19;99769.75;3154510;28;19935;-66
2022/07/17 00:26:24;;;;;;;;;;;;;;;25.67;43.97;99772.56;3154550;28;19935;-66
2022/07/17 00:27:56;;;;;;;;;;;;;;;25.64;44.39;99774.59;3154470;28;19981;-65
2022/07/17 00:29:27;;;;;;;;;;;;;;;25.62;44.57;99773.06;3154470;28;19928;-66
2022/07/17 00:30:58;;;;;;;;;;;;;;;25.60;44.11;99773.22;3154446;28;20029;-66
2022/07/17 00:32:31;;;;;;;;;;;;;;;25.60;44.51;99775.06;3154633;28;19985;-65
2022/07/17 00:34:03;;;;;;;;;;;;;;;25.60;44.26;99780.41;3154305;28;19997;-65
2022/07/17 00:35:34;;;;;;;;;;;;;;;25.59;44.10;99778.75;3154548;28;19978;-65
2022/07/17 00:37:06;;;;;;;;;;;;;;;25.57;44.06;99773.56;3142692;28;19933;-65
2022/07/17 00:38:38;;;;;;;;;;;;;;;25.54;43.91;99768.56;3154496;28;20053;-65
2022/07/17 00:40:10;;;;;;;;;;;;;;;25.50;44.04;99767.25;3154523;28;19985;-65
2022/07/17 00:41:44;;;;;;;;;;;;;;;25.47;44.33;99767.59;3154468;28;20409;-65
2022/07/17 00:43:16;;;;;;;;;;;;;;;25.41;44.01;99773.56;3154318;28;20487;-65
2022/07/17 00:44:48;;;;;;;;;;;;;;;25.37;44.28;99775.72;3153841;28;20009;-65
2022/07/17 00:46:21;;;;;;;;;;;;;;;25.38;44.07;99774.75;3154093;28;19932;-66
2022/07/17 00:47:58;;;;;;;;;;;;;;;25.37;44.12;99777.56;3154350;28;19928;-65
2022/07/17 00:49:30;;;;;;;;;;;;;;;25.33;44.21;99782.38;3154430;28;19928;-66
2022/07/17 00:51:01;;;;;;;;;;;;;;;25.33;44.26;99778.91;3154169;28;20418;-66
2022/07/17 00:52:33;;;;;;;;;;;;;;;25.32;43.89;99779.88;3154168;28;20462;-66
2022/07/17 00:54:04;;;;;;;;;;;;;;;25.30;43.91;99779.22;3154353;28;20326;-66
2022/07/17 00:55:36;;;;;;;;;;;;;;;25.29;44.16;99777.53;3148592;28;19944;-66
2022/07/17 00:57:08;;;;;;;;;;;;;;;25.28;44.39;99786.53;3153300;28;20065;-66
2022/07/17 00:58:40;;;;;;;;;;;;;;;25.28;44.10;99783.88;3154359;28;19998;-66
2022/07/17 01:00:12;;;;;;;;;;;;;;;25.29;44.38;99782.88;3154316;28;19928;-66
2022/07/17 01:01:44;;;;;;;;;;;;;;;25.29;44.13;99781.06;3154386;28;19939;-66
2022/07/17 01:03:17;;;;;;;;;;;;;;;25.28;43.95;99774.03;3154169;28;19997;-66
2022/07/17 01:04:49;;;;;;;;;;;;;;;25.32;44.04;99779.88;3153870;28;19935;-66
2022/07/17 01:06:21;;;;;;;;;;;;;;;25.32;44.37;99779.88;3154152;28;19980;-66
2022/07/17 01:07:51;;;;;;;;;;;;;;;25.32;44.04;99769.22;3153941;28;19928;-66
2022/07/17 01:09:24;;;;;;;;;;;;;;;25.33;44.11;99777.06;3154288;28;19992;-66
2022/07/17 01:10:54;;;;;;;;;;;;;;;25.36;43.95;99773.22;3153940;28;20114;-66
2022/07/17 01:12:26;;;;;;;;;;;;;;;25.38;44.13;99774.75;3154037;28;20317;-66
2022/07/17 01:13:58;;;;;;;;;;;;;;;25.39;44.17;99780.91;3154013;28;20332;-65
2022/07/17 01:15:29;;;;;;;;;;;;;;;25.40;44.06;99777.22;3153947;28;20662;-66
2022/07/17 01:17:01;;;;;;;;;;;;;;;25.39;44.21;99773.72;3153543;28;19928;-65
2022/07/17 01:18:34;;;;;;;;;;;;;;;25.39;43.84;99784.38;3153680;28;19951;-65
2022/07/17 01:20:05;;;;;;;;;;;;;;;25.40;44.25;99782.56;3153783;28;20386;-67
2022/07/17 01:21:42;;;;;;;;;;;;;;;25.40;44.24;99785.22;3153877;28;20074;-66
2022/07/17 01:23:14;;;;;;;;;;;;;;;25.39;44.17;99800.38;3154083;28;20460;-66
2022/07/17 01:24:45;;;;;;;;;;;;;;;25.38;44.21;99792.56;3153882;28;19935;-66
2022/07/17 01:26:17;;;;;;;;;;;;;;;25.38;44.26;99797.91;3153783;28;19928;-67
2022/07/17 01:27:48;;;;;;;;;;;;;;;25.38;44.41;99808.56;3153836;28;19937;-65
2022/07/17 01:29:20;;;;;;;;;;;;;;;25.35;44.61;99801.72;3153866;28;19928;-66
2022/07/17 01:30:52;;;;;;;;;;;;;;;25.34;44.46;99794.72;3153869;28;20489;-65
2022/07/17 01:32:31;;;;;;;;;;;;;;;25.35;44.72;99800.88;3154038;28;19934;-66
2022/07/17 01:34:04;;;;;;;;;;;;;;;25.34;44.40;99796.53;3153747;28;19981;-65
2022/07/17 01:35:35;;;;;;;;;;;;;;;25.34;44.26;99794.72;3154086;28;19927;-66
2022/07/17 01:37:08;;;;;;;;;;;;;;;25.32;44.57;99795.88;3137260;28;19982;-66
2022/07/17 01:38:40;;;;;;;;;;;;;;;25.30;44.73;99804.03;3148970;28;19928;-65
2022/07/17 01:40:12;;;;;;;;;;;;;;;25.28;44.94;99803.38;3149763;28;19928;-65
2022/07/17 01:41:44;;;;;;;;;;;;;;;25.27;44.84;99812.38;3149256;28;19983;-66
2022/07/17 01:43:16;;;;;;;;;;;;;;;25.24;45.26;99806.53;3149777;28;19928;-66
2022/07/17 01:44:46;;;;;;;;;;;;;;;25.24;44.97;99802.03;3148977;28;19992;-66
2022/07/17 01:46:18;;;;;;;;;;;;;;;25.24;45.19;99795.88;3149683;28;20000;-66
2022/07/17 01:47:50;;;;;;;;;;;;;;;25.23;45.07;99811.03;3149055;28;20114;-66
2022/07/17 01:49:20;;;;;;;;;;;;;;;25.22;45.22;99809.34;3149110;28;20728;-65
2022/07/17 01:50:52;;;;;;;;;;;;;;;25.19;44.98;99807.00;3149366;28;19928;-65
2022/07/17 01:52:26;;;;;;;;;;;;;;;25.21;45.35;99814.84;3149521;28;19989;-65
2022/07/17 01:53:57;;;;;;;;;;;;;;;25.18;45.44;99821.34;3149337;28;19993;-66
2022/07/17 01:55:29;;;;;;;;;;;;;;;25.18;45.49;99816.00;3143576;28;20456;-66
2022/07/17 01:57:00;;;;;;;;;;;;;;;25.16;45.37;99816.16;3146466;28;19932;-65
2022/07/17 01:58:32;;;;;;;;;;;;;;;25.12;45.48;99811.31;3149293;28;19972;-64
2022/07/17 02:00:04;;;;;;;;;;;;;;;25.12;45.54;99819.31;3149357;28;20445;-64
2022/07/17 02:01:35;;;;;;;;;;;;;;;25.10;45.53;99819.44;3149092;28;20059;-67
2022/07/17 02:03:07;;;;;;;;;;;;;;;25.09;45.68;99814.28;3149749;28;19928;-66
2022/07/17 02:04:41;;;;;;;;;;;;;;;25.05;45.85;99816.44;3148440;28;20034;-66
2022/07/17 02:06:13;;;;;;;;;;;;;;;25.05;46.06;99820.94;3149161;28;20069;-66
2022/07/17 02:07:46;;;;;;;;;;;;;;;25.04;45.55;99820.09;3153539;28;19928;-66
2022/07/17 02:09:16;;;;;;;;;;;;;;;25.01;46.13;99816.94;3153532;28;20294;-66
2022/07/17 02:10:48;;;;;;;;;;;;;;;24.98;46.54;99820.75;3153110;28;19988;-66
2022/07/17 02:12:19;;;;;;;;;;;;;;;24.94;46.35;99819.41;3153107;28;19935;-66
2022/07/17 02:13:51;;;;;;;;;;;;;;;24.91;46.94;99820.56;3152154;28;20341;-64
2022/07/17 02:15:23;;;;;;;;;;;;;;;24.90;46.89;99828.72;3153400;28;20417;-66
2022/07/17 02:16:54;;;;;;;;;;;;;;;24.86;46.75;99819.38;3153192;28;20325;-66
2022/07/17 02:18:26;;;;;;;;;;;;;;;24.83;46.81;99825.84;3153244;28;19935;-66
2022/07/17 02:19:57;;;;;;;;;;;;;;;24.85;46.73;99823.06;3153260;28;19957;-66
2022/07/17 02:21:28;;;;;;;;;;;;;;;24.85;46.46;99818.56;3153599;28;20068;-65
2022/07/17 02:23:02;;;;;;;;;;;;;;;24.86;46.65;99825.53;3152836;28;20011;-65
2022/07/17 02:24:32;;;;;;;;;;;;;;;24.84;46.95;99818.69;3153089;28;19975;-66
2022/07/17 02:26:04;;;;;;;;;;;;;;;24.81;46.98;99819.03;3153262;28;20103;-66
2022/07/17 02:27:34;;;;;;;;;;;;;;;24.77;47.44;99818.50;3153354;28;20598;-66
2022/07/17 02:29:06;;;;;;;;;;;;;;;24.71;47.34;99814.66;3153251;28;19939;-66
2022/07/17 02:30:38;;;;;;;;;;;;;;;24.70;47.17;99818.31;3153129;28;20027;-64
2022/07/17 02:32:09;;;;;;;;;;;;;;;24.72;47.21;99820.81;3153539;28;19985;-66
2022/07/17 02:33:41;;;;;;;;;;;;;;;24.71;47.66;99825.31;3153079;28;20003;-66
2022/07/17 02:35:13;;;;;;;;;;;;;;;24.66;47.35;99824.94;3153198;28;20326;-66
2022/07/17 02:36:45;;;;;;;;;;;;;;;24.66;47.06;99816.97;3155233;28;20029;-66
2022/07/17 02:38:18;;;;;;;;;;;;;;;24.65;46.95;99822.47;3153092;28;19932;-66
2022/07/17 02:39:56;;;;;;;;;;;;;;;24.64;47.33;99820.78;3153234;28;19928;-67
2022/07/17 02:41:27;;;;;;;;;;;;;;;24.59;47.39;99826.59;3153055;28;20377;-66
2022/07/17 02:42:59;;;;;;;;;;;;;;;24.57;47.82;99823.25;3153208;28;19935;-66
2022/07/17 02:44:29;;;;;;;;;;;;;;;24.52;48.07;99823.72;3153070;28;19936;-66
2022/07/17 02:46:01;;;;;;;;;;;;;;;24.39;48.68;99822.44;3153138;28;20469;-66
2022/07/17 02:47:35;;;;;;;;;;;;;;;24.33;49.02;99825.75;3152826;28;20325;-66
2022/07/17 02:49:07;;;;;;;;;;;;;;;24.29;48.90;99825.22;3152985;28;19932;-65
2022/07/17 02:50:38;;;;;;;;;;;;;;;24.24;48.89;99825.69;3152973;28;19955;-66
2022/07/17 02:52:09;;;;;;;;;;;;;;;24.18;49.29;99818.34;3152887;28;19928;-66
2022/07/17 02:53:42;;;;;;;;;;;;;;;24.12;49.54;99826.13;3152979;28;19994;-65
2022/07/17 02:55:14;;;;;;;;;;;;;;;24.00;49.85;99822.88;3150032;28;19928;-66
2022/07/17 02:56:45;;;;;;;;;;;;;;;23.94;50.18;99834.13;3148919;28;19932;-65
2022/07/17 02:58:17;;;;;;;;;;;;;;;23.90;50.39;99822.09;3152990;28;19978;-67
2022/07/17 02:59:49;;;;;;;;;;;;;;;23.83;51.25;99824.56;3152789;28;19928;-65
2022/07/17 03:01:20;;;;;;;;;;;;;;;23.76;50.93;99831.50;3152910;28;19932;-65
2022/07/17 03:02:51;;;;;;;;;;;;;;;23.71;51.10;99823.13;3153081;28;19993;-66
2022/07/17 03:04:23;;;;;;;;;;;;;;;23.64;51.46;99830.03;3152826;28;20004;-65
2022/07/17 03:05:54;;;;;;;;;;;;;;;23.59;51.32;99833.13;3153137;28;19928;-65
2022/07/17 03:07:25;;;;;;;;;;;;;;;23.52;51.59;99826.78;3153039;28;19942;-65
2022/07/17 03:08:58;;;;;;;;;;;;;;;23.57;51.27;99837.75;3154775;28;20356;-67
2022/07/17 03:10:28;;;;;;;;;;;;;;;23.56;51.01;99836.94;3154828;28;19934;-65
2022/07/17 03:12:00;;;;;;;;;;;;;;;23.59;50.97;99841.94;3155790;28;20128;-65
2022/07/17 03:13:32;;;;;;;;;;;;;;;23.60;50.86;99840.97;3155420;28;19928;-66
2022/07/17 03:15:04;;;;;;;;;;;;;;;23.60;51.04;99840.13;3155496;28;20404;-65
2022/07/17 03:16:36;;;;;;;;;;;;;;;23.61;50.98;99841.81;3155528;28;19928;-65
2022/07/17 03:18:07;;;;;;;;;;;;;;;23.61;50.97;99834.66;3155160;28;19928;-66
2022/07/17 03:19:39;;;;;;;;;;;;;;;23.65;50.44;99847.66;3155490;28;19977;-66
2022/07/17 03:21:11;;;;;;;;;;;;;;;23.66;50.85;99842.16;3155721;28;19931;-65
2022/07/17 03:22:42;;;;;;;;;;;;;;;23.65;50.87;99843.16;3155017;28;19932;-65
2022/07/17 03:24:15;;;;;;;;;;;;;;;23.61;50.79;99834.66;3155223;28;19985;-65
2022/07/17 03:25:47;;;;;;;;;;;;;;;23.63;50.76;99847.78;3155337;28;19935;-66
2022/07/17 03:27:18;;;;;;;;;;;;;;;23.65;50.43;99847.66;3155458;28;19928;-67
2022/07/17 03:28:49;;;;;;;;;;;;;;;23.65;50.90;99848.47;3155257;28;19927;-67
2022/07/17 03:30:21;;;;;;;;;;;;;;;23.66;50.63;99850.13;3155185;28;19934;-67
2022/07/17 03:31:53;;;;;;;;;;;;;;;23.68;50.39;99852.66;3155597;28;19939;-67
2022/07/17 03:33:24;;;;;;;;;;;;;;;23.69;50.27;99855.16;3155096;28;19947;-66
2022/07/17 03:34:56;;;;;;;;;;;;;;;23.67;50.49;99859.81;3155114;28;19928;-66
2022/07/17 03:36:28;;;;;;;;;;;;;;;23.66;50.33;99860.78;3162465;28;19928;-67
2022/07/17 03:37:59;;;;;;;;;;;;;;;23.70;50.29;99862.19;3159404;28;20405;-66
2022/07/17 03:39:32;;;;;;;;;;;;;;;23.70;50.55;99866.69;3156788;28;20435;-66
2022/07/17 03:41:04;;;;;;;;;;;;;;;23.68;50.36;99865.94;3159739;28;20362;-67
2022/07/17 03:42:35;;;;;;;;;;;;;;;23.68;50.40;99861.47;3160361;28;20652;-67
2022/07/17 03:44:06;;;;;;;;;;;;;;;23.68;50.58;99865.94;3160351;28;19928;-67
2022/07/17 03:45:38;;;;;;;;;;;;;;;23.64;50.53;99859.28;3160142;28;19993;-66
2022/07/17 03:47:09;;;;;;;;;;;;;;;23.60;50.98;99866.69;3160286;28;19924;-66
2022/07/17 03:48:41;;;;;;;;;;;;;;;23.57;50.93;99861.69;3159824;28;19928;-66
2022/07/17 03:50:12;;;;;;;;;;;;;;;23.55;51.04;99863.69;3159914;28;20305;-67
2022/07/17 03:51:44;;;;;;;;;;;;;;;23.56;51.11;99862.69;3160093;28;20359;-67
2022/07/17 03:53:16;;;;;;;;;;;;;;;23.55;50.75;99866.34;3160024;28;19924;-67
2022/07/17 03:54:49;;;;;;;;;;;;;;;23.55;50.76;99872.47;3160012;28;19947;-67
2022/07/17 03:56:19;;;;;;;;;;;;;;;23.56;50.83;99868.00;3152809;28;19924;-67
2022/07/17 03:57:51;;;;;;;;;;;;;;;23.56;50.83;99865.34;3160136;28;20415;-68
2022/07/17 03:59:22;;;;;;;;;;;;;;;23.58;50.72;99869.53;3160087;28;19924;-68
2022/07/17 04:00:54;;;;;;;;;;;;;;;23.61;50.16;99871.03;3159832;28;19924;-68
2022/07/17 04:02:26;;;;;;;;;;;;;;;23.61;50.26;99879.84;3160018;28;19935;-68
2022/07/17 04:03:57;;;;;;;;;;;;;;;23.64;50.31;99876.06;3159678;28;19932;-67
2022/07/17 04:05:29;;;;;;;;;;;;;;;23.68;50.34;99879.25;3160113;28;20385;-67
2022/07/17 04:06:59;;;;;;;;;;;;;;;23.70;49.97;99885.28;3159155;28;20398;-67
2022/07/17 04:08:31;;;;;;;;;;;;;;;23.73;49.89;99877.84;3159150;28;20080;-67
2022/07/17 04:10:04;;;;;;;;;;;;;;;23.76;50.09;99882.84;3159646;28;19924;-67
2022/07/17 04:11:36;;;;;;;;;;;;;;;23.79;49.90;99887.88;3160036;28;19928;-67
2022/07/17 04:13:07;;;;;;;;;;;;;;;23.83;49.51;99888.38;3160182;28;19928;-67
2022/07/17 04:14:39;;;;;;;;;;;;;;;23.87;49.29;99891.56;3159699;28;19931;-67
2022/07/17 04:16:11;;;;;;;;;;;;;;;23.90;49.29;99892.13;3159956;28;19924;-68
2022/07/17 04:17:42;;;;;;;;;;;;;;;23.94;49.36;99900.63;3159840;28;20393;-67
2022/07/17 04:19:14;;;;;;;;;;;;;;;23.97;49.05;99898.50;3159097;28;19976;-67
2022/07/17 04:20:45;;;;;;;;;;;;;;;24.00;48.96;99900.84;3159736;28;19928;-67
2022/07/17 04:22:16;;;;;;;;;;;;;;;24.05;48.88;99908.38;3159659;28;20019;-67
2022/07/17 04:23:48;;;;;;;;;;;;;;;24.09;48.54;99908.91;3159473;28;19934;-67
2022/07/17 04:25:21;;;;;;;;;;;;;;;24.12;48.40;99909.41;3159783;28;19931;-66
2022/07/17 04:26:52;;;;;;;;;;;;;;;24.15;48.25;99906.44;3159534;28;19924;-67
2022/07/17 04:28:24;;;;;;;;;;;;;;;24.19;48.10;99904.31;3159830;28;20012;-65
2022/07/17 04:29:56;;;;;;;;;;;;;;;24.25;47.99;99909.88;3159578;28;19981;-64
2022/07/17 04:31:27;;;;;;;;;;;;;;;24.28;47.71;99914.03;3159715;28;19985;-66
2022/07/17 04:32:58;;;;;;;;;;;;;;;24.30;47.52;99918.22;3160246;28;19936;-66
2022/07/17 04:34:30;;;;;;;;;;;;;;;24.29;47.79;99900.56;3159391;28;20397;-66
2022/07/17 04:36:01;;;;;;;;;;;;;;;24.39;47.48;99908.44;3163185;28;19950;-64
2022/07/17 04:37:33;;;;;;;;;;;;;;;24.45;47.38;99918.50;3167775;28;19924;-65
2022/07/17 04:39:04;;;;;;;;;;;;;;;24.48;47.27;99923.53;3159798;28;19932;-65
2022/07/17 04:40:38;;;;;;;;;;;;;;;24.52;46.76;99921.38;3159619;28;20065;-66
2022/07/17 04:42:10;;;;;;;;;;;;;;;24.56;46.64;99920.09;3159225;28;19931;-67
2022/07/17 04:43:41;;;;;;;;;;;;;;;24.60;46.67;99923.28;3159541;28;19935;-66
2022/07/17 04:45:13;;;;;;;;;;;;;;;24.64;46.49;99920.16;3159764;28;19924;-66
2022/07/17 04:46:44;;;;;;;;;;;;;;;24.67;46.16;99919.84;3159338;28;20019;-65
2022/07/17 04:48:16;;;;;;;;;;;;;;;24.71;46.26;99923.00;3159023;28;19928;-66
2022/07/17 04:49:48;;;;;;;;;;;;;;;24.77;46.09;99924.22;3159647;28;19957;-66
2022/07/17 04:51:19;;;;;;;;;;;;;;;24.83;45.98;99918.25;3159277;28;19924;-67
2022/07/17 04:52:51;;;;;;;;;;;;;;;24.85;45.45;99921.59;3159283;28;19928;-67
2022/07/17 04:54:22;;;;;;;;;;;;;;;24.89;45.34;99920.28;3159008;28;19985;-65
2022/07/17 04:55:54;;;;;;;;;;;;;;;24.93;45.32;99932.28;3152088;28;19929;-66
2022/07/17 04:57:26;;;;;;;;;;;;;;;24.98;45.25;99916.66;3159654;28;20016;-67
2022/07/17 04:58:58;;;;;;;;;;;;;;;25.05;45.37;99924.84;3146482;28;20520;-67
2022/07/17 05:00:29;;;;;;;;;;;;;;;25.09;45.29;99927.03;3158032;28;19951;-67
2022/07/17 05:02:01;;;;;;;;;;;;;;;25.13;44.63;99927.53;3160019;28;19928;-68
2022/07/17 05:03:32;;;;;;;;;;;;;;;25.18;44.58;99922.63;3163566;28;19924;-68
2022/07/17 05:05:03;;;;;;;;;;;;;;;25.22;44.34;99926.63;3159431;28;19932;-68
2022/07/17 05:06:35;;;;;;;;;;;;;;;25.25;44.35;99928.13;3159053;28;19924;-67
2022/07/17 05:08:06;;;;;;;;;;;;;;;25.28;43.33;99920.63;3159481;28;19928;-66
2022/07/17 05:09:38;;;;;;;;;;;;;;;25.33;43.63;99925.50;3158876;28;19988;-68
2022/07/17 05:11:11;;;;;;;;;;;;;;;25.37;43.39;99925.00;3159452;28;19931;-68
2022/07/17 05:12:42;;;;;;;;;;;;;;;25.43;43.46;99926.19;3159045;28;19924;-66
2022/07/17 05:14:15;;;;;;;;;;;;;;;25.47;42.89;99932.88;3160927;28;19931;-66
2022/07/17 05:15:47;;;;;;;;;;;;;;;25.52;42.73;99935.03;3160632;28;19968;-68
2022/07/17 05:17:19;;;;;;;;;;;;;;;25.55;42.40;99935.53;3158932;28;19955;-65
2022/07/17 05:18:51;;;;;;;;;;;;;;;25.61;42.53;99937.56;3159137;28;19924;-64
2022/07/17 05:20:22;;;;;;;;;;;;;;;25.67;42.38;99944.06;3158982;28;20353;-64
2022/07/17 05:21:54;;;;;;;;;;;;;;;25.71;41.82;99945.44;3159248;28;19928;-64
2022/07/17 05:23:26;;;;;;;;;;;;;;;25.75;41.68;99945.94;3159145;28;19946;-64
2022/07/17 05:24:57;;;;;;;;;;;;;;;25.80;41.59;99943.63;3159054;28;19924;-65
2022/07/17 05:26:30;;;;;;;;;;;;;;;25.85;41.84;99943.97;3158804;28;19931;-62
2022/07/17 05:28:02;;;;;;;;;;;;;;;25.89;41.41;99941.84;3158674;28;19924;-62
2022/07/17 05:29:33;;;;;;;;;;;;;;;25.91;41.17;99946.00;3158834;28;19924;-64
2022/07/17 05:31:05;;;;;;;;;;;;;;;25.95;41.45;99944.69;3158021;28;19924;-62
2022/07/17 05:32:37;;;;;;;;;;;;;;;26.02;41.51;99944.84;3159236;28;19924;-64
2022/07/17 05:34:08;;;;;;;;;;;;;;;26.07;40.85;99939.84;3158745;28;19927;-64
2022/07/17 05:35:40;;;;;;;;;;;;;;;26.10;40.72;99951.03;3159564;28;19955;-64
2022/07/17 05:37:11;;;;;;;;;;;;;;;26.17;40.95;99951.19;3170421;28;19932;-65
2022/07/17 05:38:43;;;;;;;;;;;;;;;26.19;40.93;99951.84;3158596;28;19924;-64
2022/07/17 05:40:14;;;;;;;;;;;;;;;26.25;40.69;99947.69;3158603;28;19931;-64
2022/07/17 05:41:47;;;;;;;;;;;;;;;26.31;40.45;99955.03;3158616;28;19935;-65
2022/07/17 05:43:19;;;;;;;;;;;;;;;26.37;40.45;99956.19;3158066;28;19931;-64
2022/07/17 05:44:50;;;;;;;;;;;;;;;26.37;40.13;99958.88;3158272;28;19931;-65
2022/07/17 05:46:22;;;;;;;;;;;;;;;26.41;40.23;99963.69;3158094;28;19985;-65
2022/07/17 05:47:53;;;;;;;;;;;;;;;26.45;40.19;99962.38;3159012;28;19928;-66
2022/07/17 05:49:24;;;;;;;;;;;;;;;26.51;40.14;99959.06;3158524;28;20001;-66
2022/07/17 05:50:56;;;;;;;;;;;;;;;26.57;40.20;99970.91;3158490;28;20294;-65
2022/07/17 05:52:27;;;;;;;;;;;;;;;26.63;40.01;99966.72;3158347;28;20321;-64
2022/07/17 05:53:59;;;;;;;;;;;;;;;26.67;39.66;99973.38;3158535;28;19969;-64
2022/07/17 05:55:30;;;;;;;;;;;;;;;26.72;39.64;99974.56;3153104;28;20351;-66
2022/07/17 05:57:04;;;;;;;;;;;;;;;26.79;39.45;99966.69;3156354;28;19931;-64
2022/07/17 05:58:34;;;;;;;;;;;;;;;26.88;39.54;99978.19;3158058;28;19953;-67
2022/07/17 06:00:07;;;;;;;;;;;;;;;26.91;39.09;99978.69;3158634;28;20026;-67
2022/07/17 06:01:39;;;;;;;;;;;;;;;26.97;39.14;99980.66;3158229;28;19928;-64
2022/07/17 06:03:10;;;;;;;;;;;;;;;27.02;38.90;99982.00;3158662;28;19927;-64
2022/07/17 06:04:42;;;;;;;;;;;;;;;27.07;38.84;99974.31;3158131;28;19943;-63
2022/07/17 06:06:13;;;;;;;;;;;;;;;27.11;38.88;99978.31;3158308;28;19924;-65
2022/07/17 06:07:45;;;;;;;;;;;;;;;27.15;38.54;99976.97;3158561;28;20305;-62
2022/07/17 06:09:17;;;;;;;;;;;;;;;27.20;38.46;99978.13;3157951;28;19928;-65
2022/07/17 06:10:48;;;;;;;;;;;;;;;27.24;38.32;99981.28;3158156;28;20338;-65
2022/07/17 06:12:21;;;;;;;;;;;;;;;27.27;38.55;99978.25;3157851;28;19961;-64
2022/07/17 06:13:53;;;;;;;;;;;;;;;27.32;38.32;99980.44;3157249;28;20401;-67
2022/07/17 06:15:24;;;;;;;;;;;;;;;27.33;38.22;99980.28;3157143;28;20370;-64
2022/07/17 06:16:56;;;;;;;;;;;;;;;27.32;37.98;99980.44;3156436;28;19928;-65
2022/07/17 06:18:28;;;;;;;;;;;;;;;27.35;38.31;99986.25;3157069;28;19928;-68
2022/07/17 06:19:59;;;;;;;;;;;;;;;27.35;37.79;99978.25;3157499;28;19924;-64
2022/07/17 06:21:31;;;;;;;;;;;;;;;27.39;37.65;99976.03;3157283;28;19924;-65
2022/07/17 06:23:02;;;;;;;;;;;;;;;27.44;37.24;99974.50;3157209;28;19977;-64
2022/07/17 06:24:34;;;;;;;;;;;;;;;27.50;37.42;99970.31;3155982;28;19924;-65
2022/07/17 06:26:06;;;;;;;;;;;;;;;27.56;37.01;99976.81;3156748;28;19973;-65
2022/07/17 06:27:41;;;;;;;;;;;;;;;27.62;37.04;99976.09;3157040;28;19931;-67
2022/07/17 06:29:13;;;;;;;;;;;;;;;27.71;37.01;99966.19;3157831;28;19931;-67
2022/07/17 06:30:45;;;;;;;;;;;;;;;27.78;36.70;99964.50;3158417;28;20006;-67
2022/07/17 06:32:16;;;;;;;;;;;;;;;27.85;37.22;99966.31;3161417;28;20030;-67
2022/07/17 06:33:48;;;;;;;;;;;;;;;27.92;36.40;99957.56;3158599;28;19924;-67
2022/07/17 06:35:19;;;;;;;;;;;;;;;28.00;36.46;99960.19;3158373;28;19981;-68
2022/07/17 06:36:51;;;;;;;;;;;;;;;28.06;36.05;99959.47;3157968;28;19928;-68
2022/07/17 06:38:23;;;;;;;;;;;;;;;28.10;35.90;99966.97;3157825;28;19924;-68
2022/07/17 06:39:54;;;;;;;;;;;;;;;28.15;35.25;99963.75;3157933;28;19924;-69
2022/07/17 06:41:26;;;;;;;;;;;;;;;28.23;35.42;99966.38;3158407;28;19924;-67
2022/07/17 06:43:05;;;;;;;;;;;;;;;28.30;35.54;99966.47;3157898;28;19925;-66
2022/07/17 06:44:36;;;;;;;;;;;;;;;28.32;34.51;99965.28;3158692;28;20018;-66
2022/07/17 06:46:08;;;;;;;;;;;;;;;28.34;34.72;99971.31;3159011;28;19928;-65
2022/07/17 06:47:46;;;;;;;;;;;;;;;28.42;34.33;99966.91;3158968;28;19928;-68
2022/07/17 06:49:18;;;;;;;;;;;;;;;28.44;33.95;99963.03;3157733;28;21012;-65
2022/07/17 06:50:49;;;;;;;;;;;;;;;28.46;33.75;99971.75;3158124;28;19935;-68
2022/07/17 06:52:21;;;;;;;;;;;;;;;28.49;33.77;99963.34;3158400;28;19928;-69
2022/07/17 06:53:53;;;;;;;;;;;;;;;28.54;33.86;99965.44;3158808;28;19935;-69
2022/07/17 06:57:10;;;;;;;;;;;;;;;28.69;33.70;99962.78;3153987;28;20459;-69
2022/07/17 06:58:43;;;;;;;;;;;;;;;28.73;33.35;99967.63;3154143;28;19935;-71
2022/07/17 07:00:15;;;;;;;;;;;;;;;28.74;33.26;99965.78;3150174;28;19924;-69
2022/07/17 07:01:46;;;;;;;;;;;;;;;28.77;33.04;99974.28;3157322;28;19981;-68
2022/07/17 07:03:18;;;;;;;;;;;;;;;28.80;32.03;99965.84;3160004;28;20420;-65
2022/07/17 07:04:49;;;;;;;;;;;;;;;28.83;32.61;99967.34;3157365;28;19932;-65
2022/07/17 07:06:21;;;;;;;;;;;;;;;28.87;32.40;99965.97;3157962;28;19928;-65
2022/07/17 07:07:52;;;;;;;;;;;;;;;28.91;32.04;99963.75;3162135;28;19924;-65
2022/07/17 07:09:25;;;;;;;;;;;;;;;28.96;32.37;99972.09;3145013;28;19925;-65
2022/07/17 07:10:57;;;;;;;;;;;;;;;29.03;32.35;99971.19;3157280;28;19977;-65
2022/07/17 07:12:29;;;;;;;;;;;;;;;29.07;32.08;99963.59;3157638;28;19924;-65
2022/07/17 07:14:02;;;;;;;;;;;;;;;29.15;31.67;99965.34;3156935;28;20435;-65
2022/07/17 07:15:34;;;;;;;;;;;;;;;29.22;31.54;99960.91;3157195;28;19931;-65
2022/07/17 07:17:05;;;;;;;;;;;;;;;29.27;31.36;99973.75;3157124;28;19930;-65
2022/07/17 07:18:37;;;;;;;;;;;;;;;29.30;32.00;99962.66;3157194;28;20015;-65
2022/07/17 07:20:10;;;;;;;;;;;;;;;29.34;31.58;99961.25;3157130;28;19924;-65
2022/07/17 07:21:41;;;;;;;;;;;;;;;29.32;31.55;99957.94;3157064;28;20509;-65
2022/07/17 07:23:13;;;;;;;;;;;;;;;29.37;31.48;99960.88;3157150;28;20257;-65
2022/07/17 07:24:44;;;;;;;;;;;;;;;29.43;31.27;99963.66;3157083;28;20508;-65
2022/07/17 07:26:16;;;;;;;;;;;;;;;29.51;31.40;99959.19;3156897;28;19927;-65
2022/07/17 07:27:48;;;;;;;;;;;;;;;29.57;31.11;99956.59;3157676;28;19924;-65
2022/07/17 07:29:20;;;;;;;;;;;;;;;29.64;30.65;99954.84;3158105;28;19924;-65
2022/07/17 07:30:52;;;;;;;;;;;;;;;29.70;30.53;99959.47;3158197;28;20405;-65
2022/07/17 07:32:24;;;;;;;;;;;;;;;29.79;30.72;99962.03;3158667;28;20334;-65
2022/07/17 07:33:55;;;;;;;;;;;;;;;29.86;30.45;99958.38;3158322;28;20432;-65
2022/07/17 07:35:27;;;;;;;;;;;;;;;29.96;30.71;99966.13;3158116;28;19928;-65
2022/07/17 07:36:58;;;;;;;;;;;;;;;30.04;30.19;99971.38;3169849;28;19924;-65
2022/07/17 07:38:30;;;;;;;;;;;;;;;30.07;29.60;99970.97;3158292;28;19928;-65
2022/07/17 07:40:02;;;;;;;;;;;;;;;30.13;29.86;99970.22;3158500;28;19935;-65
2022/07/17 07:41:33;;;;;;;;;;;;;;;30.20;29.68;99977.50;3158101;28;20026;-65
2022/07/17 07:43:05;;;;;;;;;;;;;;;30.27;29.90;99973.06;3158367;28;19932;-65
2022/07/17 07:44:38;;;;;;;;;;;;;;;30.35;29.90;99968.38;3158291;28;19928;-65
2022/07/17 07:46:09;;;;;;;;;;;;;;;30.42;29.83;99963.06;3157968;28;19924;-65
2022/07/17 07:47:42;;;;;;;;;;;;;;;30.49;29.18;99969.31;3158053;28;19928;-65
2022/07/17 07:49:14;;;;;;;;;;;;;;;30.54;29.13;99966.88;3148061;28;19924;-65
2022/07/17 07:50:46;;;;;;;;;;;;;;;30.62;29.28;99970.47;3158806;28;19928;-65
2022/07/17 07:52:17;;;;;;;;;;;;;;;30.67;29.17;99974.19;3170872;28;19924;-65
2022/07/17 07:53:49;;;;;;;;;;;;;;;30.76;28.81;99981.13;3158213;28;19924;-65
2022/07/17 07:55:21;;;;;;;;;;;;;;;30.77;28.22;99979.25;3160126;28;19931;-65
2022/07/17 07:56:54;;;;;;;;;;;;;;;30.75;28.13;99979.44;3160357;28;20011;-65
2022/07/17 07:58:25;;;;;;;;;;;;;;;30.82;28.14;99985.72;3160169;28;19924;-65
2022/07/17 07:59:58;;;;;;;;;;;;;;;30.88;27.98;99989.50;3160488;28;19924;-65